sensor_id;sensor_type;location;lat;lon;timestamp;P1;P2;P0
23240;PMS7003;11789;53.482;9.862;2023-03-14T00:00:29;7.00;7.00;5.00
23240;PMS7003;11789;53.482;9.862;2023-03-14T00:02:55;6.25;5.00;5.00
23240;PMS7003;11789;53.482;9.862;2023-03-14T00:05:20;6.75;6.00;4.75
23240;PMS7003;11789;53.482;9.862;2023-03-14T00:07:46;6.25;6.00;3.25
23240;PMS7003;11789;53.482;9.862;2023-03-14T00:10:12;6.50;6.50;4.75
23240;PMS7003;11789;53.482;9.862;2023-03-14T00:12:39;4.00;4.00;3.25
23240;PMS7003;11789;53.482;9.862;2023-03-14T00:15:05;7.25;6.25;5.00
23240;PMS7003;11789;53.482;9.862;2023-03-14T00:17:32;7.25;6.50;5.50
23240;PMS7003;11789;53.482;9.862;2023-03-14T00:19:58;5.50;5.50;5.00
23240;PMS7003;11789;53.482;9.862;2023-03-14T00:22:36;7.50;7.00;6.00
23240;PMS7003;11789;53.482;9.862;2023-03-14T00:25:03;7.00;7.00;5.75
23240;PMS7003;11789;53.482;9.862;2023-03-14T00:27:30;5.25;5.25;3.75
23240;PMS7003;11789;53.482;9.862;2023-03-14T00:29:56;5.50;5.00;4.00
23240;PMS7003;11789;53.482;9.862;2023-03-14T00:32:22;7.00;7.00;6.00
23240;PMS7003;11789;53.482;9.862;2023-03-14T00:34:47;6.00;6.00;4.00
23240;PMS7003;11789;53.482;9.862;2023-03-14T00:37:13;5.00;5.00;3.75
23240;PMS7003;11789;53.482;9.862;2023-03-14T00:39:38;6.00;6.00;5.00
23240;PMS7003;11789;53.482;9.862;2023-03-14T00:42:04;5.50;5.50;4.00
23240;PMS7003;11789;53.482;9.862;2023-03-14T00:44:29;7.25;7.25;6.00
23240;PMS7003;11789;53.482;9.862;2023-03-14T00:46:55;8.00;7.00;5.25
23240;PMS7003;11789;53.482;9.862;2023-03-14T00:49:20;7.00;7.00;5.00
23240;PMS7003;11789;53.482;9.862;2023-03-14T00:51:46;5.25;5.25;3.25
23240;PMS7003;11789;53.482;9.862;2023-03-14T00:54:11;7.25;5.75;5.00
23240;PMS7003;11789;53.482;9.862;2023-03-14T00:56:37;5.00;5.00;4.00
23240;PMS7003;11789;53.482;9.862;2023-03-14T00:59:02;8.50;5.00;4.00
23240;PMS7003;11789;53.482;9.862;2023-03-14T01:01:28;6.00;4.50;3.00
23240;PMS7003;11789;53.482;9.862;2023-03-14T01:03:54;8.00;5.75;4.00
23240;PMS7003;11789;53.482;9.862;2023-03-14T01:06:22;5.25;5.25;4.25
23240;PMS7003;11789;53.482;9.862;2023-03-14T01:08:50;5.50;5.50;4.00
23240;PMS7003;11789;53.482;9.862;2023-03-14T01:11:20;5.00;5.00;4.00
23240;PMS7003;11789;53.482;9.862;2023-03-14T01:13:51;7.00;5.75;4.50
23240;PMS7003;11789;53.482;9.862;2023-03-14T01:16:18;6.75;5.25;3.50
23240;PMS7003;11789;53.482;9.862;2023-03-14T01:18:45;5.75;5.75;2.25
23240;PMS7003;11789;53.482;9.862;2023-03-14T01:21:13;7.00;5.00;4.00
23240;PMS7003;11789;53.482;9.862;2023-03-14T01:23:39;6.00;4.00;3.00
23240;PMS7003;11789;53.482;9.862;2023-03-14T01:26:04;4.75;4.75;3.25
23240;PMS7003;11789;53.482;9.862;2023-03-14T01:28:34;7.25;5.75;4.25
23240;PMS7003;11789;53.482;9.862;2023-03-14T01:31:03;6.00;5.00;3.00
23240;PMS7003;11789;53.482;9.862;2023-03-14T01:33:33;7.50;6.00;4.75
23240;PMS7003;11789;53.482;9.862;2023-03-14T01:35:58;4.75;4.00;2.25
23240;PMS7003;11789;53.482;9.862;2023-03-14T01:38:24;4.50;4.50;3.75
23240;PMS7003;11789;53.482;9.862;2023-03-14T01:40:50;6.25;5.00;4.00
23240;PMS7003;11789;53.482;9.862;2023-03-14T01:43:17;6.75;5.00;4.00
23240;PMS7003;11789;53.482;9.862;2023-03-14T01:48:31;5.50;5.00;4.00
23240;PMS7003;11789;53.482;9.862;2023-03-14T01:51:02;5.00;5.00;3.00
23240;PMS7003;11789;53.482;9.862;2023-03-14T01:53:32;8.50;6.25;4.50
23240;PMS7003;11789;53.482;9.862;2023-03-14T01:55:59;8.25;6.50;5.00
23240;PMS7003;11789;53.482;9.862;2023-03-14T01:58:25;5.75;5.75;4.50
23240;PMS7003;11789;53.482;9.862;2023-03-14T02:00:53;5.00;5.00;4.00
23240;PMS7003;11789;53.482;9.862;2023-03-14T02:03:20;7.00;7.00;4.25
23240;PMS7003;11789;53.482;9.862;2023-03-14T02:05:48;5.75;5.75;4.00
23240;PMS7003;11789;53.482;9.862;2023-03-14T02:08:17;5.50;4.50;3.00
23240;PMS7003;11789;53.482;9.862;2023-03-14T02:10:45;7.25;6.00;4.50
23240;PMS7003;11789;53.482;9.862;2023-03-14T02:13:14;7.75;7.00;4.00
23240;PMS7003;11789;53.482;9.862;2023-03-14T02:15:42;6.25;4.50;3.50
23240;PMS7003;11789;53.482;9.862;2023-03-14T02:18:08;5.00;5.00;4.00
23240;PMS7003;11789;53.482;9.862;2023-03-14T02:20:53;6.00;5.25;4.00
23240;PMS7003;11789;53.482;9.862;2023-03-14T02:23:51;8.25;6.75;4.00
23240;PMS7003;11789;53.482;9.862;2023-03-14T02:26:40;4.50;4.50;4.00
23240;PMS7003;11789;53.482;9.862;2023-03-14T02:29:10;7.00;5.75;4.00
23240;PMS7003;11789;53.482;9.862;2023-03-14T02:31:36;4.25;4.25;4.00
23240;PMS7003;11789;53.482;9.862;2023-03-14T02:34:02;7.00;7.00;5.00
23240;PMS7003;11789;53.482;9.862;2023-03-14T02:36:28;5.25;5.00;4.00
23240;PMS7003;11789;53.482;9.862;2023-03-14T02:41:30;9.00;7.50;5.00
23240;PMS7003;11789;53.482;9.862;2023-03-14T02:43:56;7.25;6.25;5.00
23240;PMS7003;11789;53.482;9.862;2023-03-14T02:46:21;7.00;7.00;4.75
23240;PMS7003;11789;53.482;9.862;2023-03-14T02:48:54;7.00;5.00;4.50
23240;PMS7003;11789;53.482;9.862;2023-03-14T02:51:23;9.00;7.50;4.75
23240;PMS7003;11789;53.482;9.862;2023-03-14T02:53:50;5.00;5.00;4.25
23240;PMS7003;11789;53.482;9.862;2023-03-14T02:56:16;7.75;7.00;5.75
23240;PMS7003;11789;53.482;9.862;2023-03-14T02:58:41;7.50;5.00;4.00
23240;PMS7003;11789;53.482;9.862;2023-03-14T03:01:08;7.00;6.50;5.00
23240;PMS7003;11789;53.482;9.862;2023-03-14T03:03:33;6.00;6.00;4.25
23240;PMS7003;11789;53.482;9.862;2023-03-14T03:05:59;6.50;5.00;4.00
23240;PMS7003;11789;53.482;9.862;2023-03-14T03:08:25;7.75;5.75;4.00
23240;PMS7003;11789;53.482;9.862;2023-03-14T03:10:52;6.00;6.00;3.50
23240;PMS7003;11789;53.482;9.862;2023-03-14T03:13:18;8.00;6.50;5.00
23240;PMS7003;11789;53.482;9.862;2023-03-14T03:15:45;7.50;6.00;4.50
23240;PMS7003;11789;53.482;9.862;2023-03-14T03:18:11;6.75;5.00;4.00
23240;PMS7003;11789;53.482;9.862;2023-03-14T03:20:37;7.75;5.50;4.00
23240;PMS7003;11789;53.482;9.862;2023-03-14T03:23:02;6.75;6.00;5.00
23240;PMS7003;11789;53.482;9.862;2023-03-14T03:25:28;6.75;5.75;4.00
23240;PMS7003;11789;53.482;9.862;2023-03-14T03:27:54;6.00;4.75;3.00
23240;PMS7003;11789;53.482;9.862;2023-03-14T03:30:20;6.25;5.50;3.75
23240;PMS7003;11789;53.482;9.862;2023-03-14T03:32:45;8.25;5.00;4.00
23240;PMS7003;11789;53.482;9.862;2023-03-14T03:35:11;5.00;5.00;4.00
23240;PMS7003;11789;53.482;9.862;2023-03-14T03:37:37;6.75;5.00;4.00
23240;PMS7003;11789;53.482;9.862;2023-03-14T03:40:04;5.50;5.50;4.00
23240;PMS7003;11789;53.482;9.862;2023-03-14T03:42:31;6.50;5.00;3.25
23240;PMS7003;11789;53.482;9.862;2023-03-14T03:44:58;6.00;5.00;4.00
23240;PMS7003;11789;53.482;9.862;2023-03-14T03:47:24;6.00;6.00;4.75
23240;PMS7003;11789;53.482;9.862;2023-03-14T03:49:49;4.75;4.75;3.00
23240;PMS7003;11789;53.482;9.862;2023-03-14T03:52:15;7.00;6.00;4.00
23240;PMS7003;11789;53.482;9.862;2023-03-14T03:54:40;6.50;5.75;4.00
23240;PMS7003;11789;53.482;9.862;2023-03-14T03:57:06;4.25;4.25;4.00
23240;PMS7003;11789;53.482;9.862;2023-03-14T03:59:31;7.75;6.00;4.50
23240;PMS7003;11789;53.482;9.862;2023-03-14T04:01:57;4.50;4.50;3.00
23240;PMS7003;11789;53.482;9.862;2023-03-14T04:04:22;4.25;3.50;3.00
23240;PMS7003;11789;53.482;9.862;2023-03-14T04:06:48;5.00;5.00;4.00
23240;PMS7003;11789;53.482;9.862;2023-03-14T04:09:13;6.75;6.75;4.50
23240;PMS7003;11789;53.482;9.862;2023-03-14T04:11:39;7.50;5.25;4.00
23240;PMS7003;11789;53.482;9.862;2023-03-14T04:14:04;9.25;6.25;4.25
23240;PMS7003;11789;53.482;9.862;2023-03-14T04:16:30;7.00;7.00;5.00
23240;PMS7003;11789;53.482;9.862;2023-03-14T04:18:59;6.75;5.00;4.00
23240;PMS7003;11789;53.482;9.862;2023-03-14T04:21:25;10.00;7.50;5.00
23240;PMS7003;11789;53.482;9.862;2023-03-14T04:23:50;8.00;6.75;4.00
23240;PMS7003;11789;53.482;9.862;2023-03-14T04:26:16;8.00;5.75;4.00
23240;PMS7003;11789;53.482;9.862;2023-03-14T04:28:41;8.00;6.00;4.00
23240;PMS7003;11789;53.482;9.862;2023-03-14T04:31:07;9.75;8.00;5.75
23240;PMS7003;11789;53.482;9.862;2023-03-14T04:33:34;6.75;6.75;4.75
23240;PMS7003;11789;53.482;9.862;2023-03-14T04:35:59;8.25;7.75;5.50
23240;PMS7003;11789;53.482;9.862;2023-03-14T04:38:25;7.00;7.00;5.00
23240;PMS7003;11789;53.482;9.862;2023-03-14T04:40:50;8.75;6.25;5.50
23240;PMS7003;11789;53.482;9.862;2023-03-14T04:43:16;6.00;6.00;4.75
23240;PMS7003;11789;53.482;9.862;2023-03-14T04:45:41;8.75;6.75;5.00
23240;PMS7003;11789;53.482;9.862;2023-03-14T04:48:07;8.25;7.50;5.00
23240;PMS7003;11789;53.482;9.862;2023-03-14T04:50:33;8.25;7.25;4.75
23240;PMS7003;11789;53.482;9.862;2023-03-14T04:52:58;5.75;4.50;4.00
23240;PMS7003;11789;53.482;9.862;2023-03-14T04:55:24;6.50;6.50;4.50
23240;PMS7003;11789;53.482;9.862;2023-03-14T04:57:49;8.25;7.50;6.25
23240;PMS7003;11789;53.482;9.862;2023-03-14T05:00:15;7.25;7.00;5.00
23240;PMS7003;11789;53.482;9.862;2023-03-14T05:02:43;8.00;8.00;6.00
23240;PMS7003;11789;53.482;9.862;2023-03-14T05:05:08;8.50;6.50;5.00
23240;PMS7003;11789;53.482;9.862;2023-03-14T05:07:34;8.00;6.50;4.00
23240;PMS7003;11789;53.482;9.862;2023-03-14T05:09:59;8.00;7.50;4.75
23240;PMS7003;11789;53.482;9.862;2023-03-14T05:12:25;6.00;6.00;4.00
23240;PMS7003;11789;53.482;9.862;2023-03-14T05:14:50;10.50;10.50;7.00
23240;PMS7003;11789;53.482;9.862;2023-03-14T05:17:16;8.00;6.75;4.75
23240;PMS7003;11789;53.482;9.862;2023-03-14T05:19:41;9.50;7.50;5.00
23240;PMS7003;11789;53.482;9.862;2023-03-14T05:22:07;10.50;9.00;6.25
23240;PMS7003;11789;53.482;9.862;2023-03-14T05:24:33;9.50;8.75;6.50
23240;PMS7003;11789;53.482;9.862;2023-03-14T05:26:58;8.75;8.50;6.00
23240;PMS7003;11789;53.482;9.862;2023-03-14T05:29:24;8.00;8.00;5.25
23240;PMS7003;11789;53.482;9.862;2023-03-14T05:31:49;8.75;8.75;7.00
23240;PMS7003;11789;53.482;9.862;2023-03-14T05:34:15;8.75;8.75;7.00
23240;PMS7003;11789;53.482;9.862;2023-03-14T05:36:40;10.75;7.75;6.00
23240;PMS7003;11789;53.482;9.862;2023-03-14T05:39:06;12.75;9.50;7.00
23240;PMS7003;11789;53.482;9.862;2023-03-14T05:41:31;10.50;9.00;6.50
23240;PMS7003;11789;53.482;9.862;2023-03-14T05:43:57;9.75;9.25;6.00
23240;PMS7003;11789;53.482;9.862;2023-03-14T05:46:22;9.00;9.00;6.00
23240;PMS7003;11789;53.482;9.862;2023-03-14T05:48:48;7.75;7.75;6.00
23240;PMS7003;11789;53.482;9.862;2023-03-14T05:51:13;11.00;7.75;6.00
23240;PMS7003;11789;53.482;9.862;2023-03-14T05:53:39;8.25;8.25;6.25
23240;PMS7003;11789;53.482;9.862;2023-03-14T05:56:04;9.75;9.75;6.00
23240;PMS7003;11789;53.482;9.862;2023-03-14T05:58:30;7.75;7.50;6.00
23240;PMS7003;11789;53.482;9.862;2023-03-14T06:00:56;7.75;7.75;6.00
23240;PMS7003;11789;53.482;9.862;2023-03-14T06:03:21;11.00;8.50;6.00
23240;PMS7003;11789;53.482;9.862;2023-03-14T06:05:49;8.25;7.00;6.00
23240;PMS7003;11789;53.482;9.862;2023-03-14T06:08:15;8.25;8.25;6.75
23240;PMS7003;11789;53.482;9.862;2023-03-14T06:10:40;9.50;7.00;6.00
23240;PMS7003;11789;53.482;9.862;2023-03-14T06:13:06;11.25;8.25;6.25
23240;PMS7003;11789;53.482;9.862;2023-03-14T06:15:31;8.75;8.75;6.00
23240;PMS7003;11789;53.482;9.862;2023-03-14T06:17:58;10.50;7.00;6.00
23240;PMS7003;11789;53.482;9.862;2023-03-14T06:20:23;8.75;8.75;5.75
23240;PMS7003;11789;53.482;9.862;2023-03-14T06:22:49;10.50;9.00;6.00
23240;PMS7003;11789;53.482;9.862;2023-03-14T06:25:14;8.25;8.25;7.00
23240;PMS7003;11789;53.482;9.862;2023-03-14T06:27:40;11.50;7.50;5.00
23240;PMS7003;11789;53.482;9.862;2023-03-14T06:30:05;6.25;6.25;5.00
23240;PMS7003;11789;53.482;9.862;2023-03-14T06:32:31;8.00;6.75;5.00
23240;PMS7003;11789;53.482;9.862;2023-03-14T06:34:57;9.00;6.50;4.00
23240;PMS7003;11789;53.482;9.862;2023-03-14T06:37:26;5.00;5.00;3.75
23240;PMS7003;11789;53.482;9.862;2023-03-14T06:39:52;4.00;4.00;3.00
23240;PMS7003;11789;53.482;9.862;2023-03-14T06:42:18;7.75;5.00;3.25
23240;PMS7003;11789;53.482;9.862;2023-03-14T06:44:44;8.00;5.00;3.75
23240;PMS7003;11789;53.482;9.862;2023-03-14T06:47:09;5.00;3.00;2.25
23240;PMS7003;11789;53.482;9.862;2023-03-14T06:49:34;7.50;4.25;3.00
23240;PMS7003;11789;53.482;9.862;2023-03-14T06:52:00;3.75;3.75;2.75
23240;PMS7003;11789;53.482;9.862;2023-03-14T06:54:25;3.50;3.00;2.00
23240;PMS7003;11789;53.482;9.862;2023-03-14T06:56:51;4.50;3.00;2.00
23240;PMS7003;11789;53.482;9.862;2023-03-14T06:59:16;3.50;3.00;2.00
23240;PMS7003;11789;53.482;9.862;2023-03-14T07:01:42;4.75;2.25;2.00
23240;PMS7003;11789;53.482;9.862;2023-03-14T07:04:08;6.00;3.00;2.00
23240;PMS7003;11789;53.482;9.862;2023-03-14T07:06:34;3.00;1.50;1.00
23240;PMS7003;11789;53.482;9.862;2023-03-14T07:09:00;5.75;4.00;2.00
23240;PMS7003;11789;53.482;9.862;2023-03-14T07:11:25;4.75;4.00;2.50
23240;PMS7003;11789;53.482;9.862;2023-03-14T07:13:51;4.25;3.25;3.00
23240;PMS7003;11789;53.482;9.862;2023-03-14T07:16:17;5.50;5.00;4.00
23240;PMS7003;11789;53.482;9.862;2023-03-14T07:18:42;4.25;4.25;3.00
23240;PMS7003;11789;53.482;9.862;2023-03-14T07:21:08;6.25;6.00;4.25
23240;PMS7003;11789;53.482;9.862;2023-03-14T07:23:34;6.25;5.00;3.50
23240;PMS7003;11789;53.482;9.862;2023-03-14T07:26:00;9.00;5.75;4.50
23240;PMS7003;11789;53.482;9.862;2023-03-14T07:28:26;6.25;5.25;4.00
23240;PMS7003;11789;53.482;9.862;2023-03-14T07:30:52;6.00;4.25;4.00
23240;PMS7003;11789;53.482;9.862;2023-03-14T07:33:18;6.25;3.25;2.50
23240;PMS7003;11789;53.482;9.862;2023-03-14T07:35:46;3.00;3.00;2.00
23240;PMS7003;11789;53.482;9.862;2023-03-14T07:38:12;5.00;2.00;1.50
23240;PMS7003;11789;53.482;9.862;2023-03-14T07:40:37;1.00;1.00;1.00
23240;PMS7003;11789;53.482;9.862;2023-03-14T07:43:03;2.50;1.75;1.00
23240;PMS7003;11789;53.482;9.862;2023-03-14T07:45:28;3.00;3.00;2.00
23240;PMS7003;11789;53.482;9.862;2023-03-14T07:47:54;2.00;2.00;2.00
23240;PMS7003;11789;53.482;9.862;2023-03-14T07:50:22;2.25;1.50;1.00
23240;PMS7003;11789;53.482;9.862;2023-03-14T07:52:49;4.00;4.00;3.00
23240;PMS7003;11789;53.482;9.862;2023-03-14T07:55:14;6.75;4.50;4.00
23240;PMS7003;11789;53.482;9.862;2023-03-14T07:57:40;1.25;1.25;1.00
23240;PMS7003;11789;53.482;9.862;2023-03-14T08:00:06;5.75;2.00;2.00
23240;PMS7003;11789;53.482;9.862;2023-03-14T08:02:32;4.50;2.75;1.75
23240;PMS7003;11789;53.482;9.862;2023-03-14T08:04:58;5.00;3.25;2.00
23240;PMS7003;11789;53.482;9.862;2023-03-14T08:07:23;3.75;3.75;3.00
23240;PMS7003;11789;53.482;9.862;2023-03-14T08:09:49;4.00;4.00;3.00
23240;PMS7003;11789;53.482;9.862;2023-03-14T08:12:14;5.50;5.00;3.00
23240;PMS7003;11789;53.482;9.862;2023-03-14T08:14:41;6.75;4.00;3.00
23240;PMS7003;11789;53.482;9.862;2023-03-14T08:17:06;6.25;6.00;5.50
23240;PMS7003;11789;53.482;9.862;2023-03-14T08:19:33;7.00;5.00;4.00
23240;PMS7003;11789;53.482;9.862;2023-03-14T08:21:58;10.00;7.25;6.00
23240;PMS7003;11789;53.482;9.862;2023-03-14T08:24:24;6.50;5.00;3.25
23240;PMS7003;11789;53.482;9.862;2023-03-14T08:26:50;6.25;4.25;4.00
23240;PMS7003;11789;53.482;9.862;2023-03-14T08:29:15;6.00;6.00;4.50
23240;PMS7003;11789;53.482;9.862;2023-03-14T08:31:40;7.75;7.75;5.75
23240;PMS7003;11789;53.482;9.862;2023-03-14T08:34:06;7.75;7.00;5.00
23240;PMS7003;11789;53.482;9.862;2023-03-14T08:36:32;7.25;6.00;4.00
23240;PMS7003;11789;53.482;9.862;2023-03-14T08:38:57;8.50;7.00;5.00
23240;PMS7003;11789;53.482;9.862;2023-03-14T08:41:23;10.50;7.00;6.00
23240;PMS7003;11789;53.482;9.862;2023-03-14T08:43:50;7.00;7.00;5.25
23240;PMS7003;11789;53.482;9.862;2023-03-14T08:46:16;6.00;6.00;5.00
23240;PMS7003;11789;53.482;9.862;2023-03-14T08:48:41;8.00;8.00;6.00
23240;PMS7003;11789;53.482;9.862;2023-03-14T08:51:07;7.50;7.50;6.25
23240;PMS7003;11789;53.482;9.862;2023-03-14T08:53:38;7.00;7.00;6.00
23240;PMS7003;11789;53.482;9.862;2023-03-14T08:56:03;10.50;8.50;6.50
23240;PMS7003;11789;53.482;9.862;2023-03-14T08:58:31;13.00;9.75;7.75
23240;PMS7003;11789;53.482;9.862;2023-03-14T09:00:57;9.25;8.50;6.00
23240;PMS7003;11789;53.482;9.862;2023-03-14T09:03:23;9.50;9.50;6.75
23240;PMS7003;11789;53.482;9.862;2023-03-14T09:05:49;8.75;8.75;5.00
23240;PMS7003;11789;53.482;9.862;2023-03-14T09:08:15;10.00;10.00;7.00
23240;PMS7003;11789;53.482;9.862;2023-03-14T09:10:41;7.00;7.00;6.00
23240;PMS7003;11789;53.482;9.862;2023-03-14T09:13:06;8.75;8.75;6.00
23240;PMS7003;11789;53.482;9.862;2023-03-14T09:15:32;11.00;9.25;7.00
23240;PMS7003;11789;53.482;9.862;2023-03-14T09:17:58;11.00;9.00;7.00
23240;PMS7003;11789;53.482;9.862;2023-03-14T09:20:24;9.25;9.25;7.00
23240;PMS7003;11789;53.482;9.862;2023-03-14T09:22:49;10.75;9.00;7.00
23240;PMS7003;11789;53.482;9.862;2023-03-14T09:25:15;11.50;8.50;6.25
23240;PMS7003;11789;53.482;9.862;2023-03-14T09:27:40;9.75;9.25;6.00
23240;PMS7003;11789;53.482;9.862;2023-03-14T09:30:06;13.25;11.00;8.00
23240;PMS7003;11789;53.482;9.862;2023-03-14T09:32:32;11.50;10.00;7.00
23240;PMS7003;11789;53.482;9.862;2023-03-14T09:34:58;11.50;11.25;7.00
23240;PMS7003;11789;53.482;9.862;2023-03-14T09:37:23;12.25;11.50;8.00
23240;PMS7003;11789;53.482;9.862;2023-03-14T09:39:49;15.25;11.00;7.00
23240;PMS7003;11789;53.482;9.862;2023-03-14T09:42:15;11.50;10.50;7.00
23240;PMS7003;11789;53.482;9.862;2023-03-14T09:44:51;8.00;8.00;5.00
23240;PMS7003;11789;53.482;9.862;2023-03-14T09:47:22;10.25;9.00;6.00
23240;PMS7003;11789;53.482;9.862;2023-03-14T09:49:49;5.00;5.00;3.25
23240;PMS7003;11789;53.482;9.862;2023-03-14T09:52:16;6.00;6.00;4.00
23240;PMS7003;11789;53.482;9.862;2023-03-14T09:54:46;1.50;0.00;0.00
23240;PMS7003;11789;53.482;9.862;2023-03-14T09:57:16;0.00;0.00;0.00
23240;PMS7003;11789;53.482;9.862;2023-03-14T09:59:46;0.00;0.00;0.00
23240;PMS7003;11789;53.482;9.862;2023-03-14T10:02:19;0.25;0.25;0.00
23240;PMS7003;11789;53.482;9.862;2023-03-14T10:04:47;1.00;1.00;0.25
23240;PMS7003;11789;53.482;9.862;2023-03-14T10:07:15;3.00;2.75;2.50
23240;PMS7003;11789;53.482;9.862;2023-03-14T10:09:48;5.25;4.00;4.00
23240;PMS7003;11789;53.482;9.862;2023-03-14T10:12:16;4.00;4.00;3.00
23240;PMS7003;11789;53.482;9.862;2023-03-14T10:14:47;2.00;2.00;1.00
23240;PMS7003;11789;53.482;9.862;2023-03-14T10:17:15;1.75;0.75;0.00
23240;PMS7003;11789;53.482;9.862;2023-03-14T10:19:53;1.00;1.00;1.00
23240;PMS7003;11789;53.482;9.862;2023-03-14T10:22:29;2.50;1.00;0.50
23240;PMS7003;11789;53.482;9.862;2023-03-14T10:24:57;0.00;0.00;0.00
23240;PMS7003;11789;53.482;9.862;2023-03-14T10:27:28;0.00;0.00;0.00
23240;PMS7003;11789;53.482;9.862;2023-03-14T10:29:59;0.00;0.00;0.00
23240;PMS7003;11789;53.482;9.862;2023-03-14T10:37:50;0.00;0.00;0.00
23240;PMS7003;11789;53.482;9.862;2023-03-14T10:40:26;0.00;0.00;0.00
23240;PMS7003;11789;53.482;9.862;2023-03-14T10:42:57;0.00;0.00;0.00
23240;PMS7003;11789;53.482;9.862;2023-03-14T10:51:03;1.00;0.00;0.00
23240;PMS7003;11789;53.482;9.862;2023-03-14T10:53:33;0.00;0.00;0.00
23240;PMS7003;11789;53.482;9.862;2023-03-14T10:56:06;0.00;0.00;0.00
23240;PMS7003;11789;53.482;9.862;2023-03-14T10:58:33;0.00;0.00;0.00
23240;PMS7003;11789;53.482;9.862;2023-03-14T11:04:19;0.00;0.00;0.00
23240;PMS7003;11789;53.482;9.862;2023-03-14T11:09:58;0.00;0.00;0.00
23240;PMS7003;11789;53.482;9.862;2023-03-14T11:12:54;0.00;0.00;0.00
23240;PMS7003;11789;53.482;9.862;2023-03-14T11:26:48;0.00;0.00;0.00
23240;PMS7003;11789;53.482;9.862;2023-03-14T11:32:09;0.00;0.00;0.00
23240;PMS7003;11789;53.482;9.862;2023-03-14T11:34:40;0.00;0.00;0.00
23240;PMS7003;11789;53.482;9.862;2023-03-14T11:37:23;0.00;0.00;0.00
23240;PMS7003;11789;53.482;9.862;2023-03-14T11:39:59;0.00;0.00;0.00
23240;PMS7003;11789;53.482;9.862;2023-03-14T11:42:37;0.00;0.00;0.00
23240;PMS7003;11789;53.482;9.862;2023-03-14T11:45:12;0.00;0.00;0.00
23240;PMS7003;11789;53.482;9.862;2023-03-14T11:47:43;0.00;0.00;0.00
23240;PMS7003;11789;53.482;9.862;2023-03-14T11:50:25;0.00;0.00;0.00
23240;PMS7003;11789;53.482;9.862;2023-03-14T11:53:05;1.25;0.00;0.00
23240;PMS7003;11789;53.482;9.862;2023-03-14T11:55:38;1.00;0.00;0.00
23240;PMS7003;11789;53.482;9.862;2023-03-14T11:58:26;0.00;0.00;0.00
23240;PMS7003;11789;53.482;9.862;2023-03-14T12:00:56;1.00;0.00;0.00
23240;PMS7003;11789;53.482;9.862;2023-03-14T12:08:52;1.50;0.00;0.00
23240;PMS7003;11789;53.482;9.862;2023-03-14T12:14:00;0.00;0.00;0.00
23240;PMS7003;11789;53.482;9.862;2023-03-14T12:16:31;0.00;0.00;0.00
23240;PMS7003;11789;53.482;9.862;2023-03-14T12:25:01;6.25;0.75;0.00
23240;PMS7003;11789;53.482;9.862;2023-03-14T12:30:28;1.25;0.00;0.00
23240;PMS7003;11789;53.482;9.862;2023-03-14T12:38:09;0.00;0.00;0.00
23240;PMS7003;11789;53.482;9.862;2023-03-14T12:43:28;1.50;0.75;0.25
23240;PMS7003;11789;53.482;9.862;2023-03-14T12:46:27;3.00;1.25;1.00
23240;PMS7003;11789;53.482;9.862;2023-03-14T12:48:48;1.00;1.00;1.00
23240;PMS7003;11789;53.482;9.862;2023-03-14T13:01:55;3.50;1.00;0.75
23240;PMS7003;11789;53.482;9.862;2023-03-14T13:05:09;7.00;1.00;0.00
23240;PMS7003;11789;53.482;9.862;2023-03-14T13:12:50;9.00;1.00;0.25
23240;PMS7003;11789;53.482;9.862;2023-03-14T13:15:32;3.00;1.00;1.00
23240;PMS7003;11789;53.482;9.862;2023-03-14T13:18:08;3.00;1.00;0.00
23240;PMS7003;11789;53.482;9.862;2023-03-14T13:20:36;2.50;1.25;0.00
23240;PMS7003;11789;53.482;9.862;2023-03-14T13:23:18;3.00;0.00;0.00
23240;PMS7003;11789;53.482;9.862;2023-03-14T13:25:54;2.25;1.00;1.00
23240;PMS7003;11789;53.482;9.862;2023-03-14T13:28:21;0.25;0.25;0.00
23240;PMS7003;11789;53.482;9.862;2023-03-14T13:30:48;2.00;0.00;0.00
23240;PMS7003;11789;53.482;9.862;2023-03-14T13:33:16;0.75;0.75;0.00
23240;PMS7003;11789;53.482;9.862;2023-03-14T13:36:00;0.00;0.00;0.00
23240;PMS7003;11789;53.482;9.862;2023-03-14T13:38:29;0.00;0.00;0.00
23240;PMS7003;11789;53.482;9.862;2023-03-14T13:40:57;1.00;0.00;0.00
23240;PMS7003;11789;53.482;9.862;2023-03-14T13:46:10;1.75;0.75;0.00
23240;PMS7003;11789;53.482;9.862;2023-03-14T13:48:49;1.50;0.25;0.00
23240;PMS7003;11789;53.482;9.862;2023-03-14T13:51:18;1.00;1.00;0.00
23240;PMS7003;11789;53.482;9.862;2023-03-14T13:53:52;1.50;0.25;0.00
23240;PMS7003;11789;53.482;9.862;2023-03-14T13:56:23;2.25;0.00;0.00
23240;PMS7003;11789;53.482;9.862;2023-03-14T13:58:51;0.25;0.25;0.00
23240;PMS7003;11789;53.482;9.862;2023-03-14T14:01:27;3.00;1.25;1.00
23240;PMS7003;11789;53.482;9.862;2023-03-14T14:04:02;3.00;2.00;0.00
23240;PMS7003;11789;53.482;9.862;2023-03-14T14:06:34;0.00;0.00;0.00
23240;PMS7003;11789;53.482;9.862;2023-03-14T14:09:02;0.50;0.00;0.00
23240;PMS7003;11789;53.482;9.862;2023-03-14T14:14:12;1.25;1.00;0.00
23240;PMS7003;11789;53.482;9.862;2023-03-14T14:16:42;2.50;1.00;0.00
23240;PMS7003;11789;53.482;9.862;2023-03-14T14:19:10;0.50;0.00;0.00
23240;PMS7003;11789;53.482;9.862;2023-03-14T14:21:37;2.75;1.25;0.00
23240;PMS7003;11789;53.482;9.862;2023-03-14T14:24:03;0.00;0.00;0.00
23240;PMS7003;11789;53.482;9.862;2023-03-14T14:26:29;0.00;0.00;0.00
23240;PMS7003;11789;53.482;9.862;2023-03-14T14:29:00;2.00;0.50;0.00
23240;PMS7003;11789;53.482;9.862;2023-03-14T14:31:28;1.25;1.00;0.00
23240;PMS7003;11789;53.482;9.862;2023-03-14T14:33:54;0.00;0.00;0.00
23240;PMS7003;11789;53.482;9.862;2023-03-14T14:36:23;1.50;0.25;0.00
23240;PMS7003;11789;53.482;9.862;2023-03-14T14:39:10;0.00;0.00;0.00
23240;PMS7003;11789;53.482;9.862;2023-03-14T14:41:41;2.00;0.00;0.00
23240;PMS7003;11789;53.482;9.862;2023-03-14T14:44:10;0.00;0.00;0.00
23240;PMS7003;11789;53.482;9.862;2023-03-14T14:46:37;0.50;0.00;0.00
23240;PMS7003;11789;53.482;9.862;2023-03-14T14:49:09;0.00;0.00;0.00
23240;PMS7003;11789;53.482;9.862;2023-03-14T14:51:41;0.00;0.00;0.00
23240;PMS7003;11789;53.482;9.862;2023-03-14T14:54:16;0.00;0.00;0.00
23240;PMS7003;11789;53.482;9.862;2023-03-14T14:56:48;1.00;0.00;0.00
23240;PMS7003;11789;53.482;9.862;2023-03-14T14:59:22;1.75;0.00;0.00
23240;PMS7003;11789;53.482;9.862;2023-03-14T15:01:50;2.00;0.00;0.00
23240;PMS7003;11789;53.482;9.862;2023-03-14T15:04:21;3.00;0.00;0.00
23240;PMS7003;11789;53.482;9.862;2023-03-14T15:06:46;0.00;0.00;0.00
23240;PMS7003;11789;53.482;9.862;2023-03-14T15:09:15;2.25;1.00;0.75
23240;PMS7003;11789;53.482;9.862;2023-03-14T15:11:42;1.00;0.00;0.00
23240;PMS7003;11789;53.482;9.862;2023-03-14T15:14:07;0.00;0.00;0.00
23240;PMS7003;11789;53.482;9.862;2023-03-14T15:16:33;0.00;0.00;0.00
23240;PMS7003;11789;53.482;9.862;2023-03-14T15:19:00;1.25;0.00;0.00
23240;PMS7003;11789;53.482;9.862;2023-03-14T15:21:30;0.00;0.00;0.00
23240;PMS7003;11789;53.482;9.862;2023-03-14T15:23:57;0.25;0.25;0.00
23240;PMS7003;11789;53.482;9.862;2023-03-14T15:26:24;1.00;1.00;0.50
23240;PMS7003;11789;53.482;9.862;2023-03-14T15:28:51;0.00;0.00;0.00
23240;PMS7003;11789;53.482;9.862;2023-03-14T15:31:18;2.00;1.00;0.00
23240;PMS7003;11789;53.482;9.862;2023-03-14T15:33:44;1.75;0.00;0.00
23240;PMS7003;11789;53.482;9.862;2023-03-14T15:36:16;2.00;1.00;0.00
23240;PMS7003;11789;53.482;9.862;2023-03-14T15:38:56;3.00;0.00;0.00
23240;PMS7003;11789;53.482;9.862;2023-03-14T15:41:23;29.50;26.00;13.50
23240;PMS7003;11789;53.482;9.862;2023-03-14T15:43:49;7.25;3.50;2.50
23240;PMS7003;11789;53.482;9.862;2023-03-14T15:46:18;0.00;0.00;0.00
23240;PMS7003;11789;53.482;9.862;2023-03-14T15:48:44;5.50;1.25;1.00